createdAt,value
2023-10-23T00:00:58.616Z,994.51
2023-10-23T00:01:58.688Z,994.48
2023-10-23T00:02:58.914Z,994.48
2023-10-23T00:03:59.195Z,994.51
2023-10-23T00:04:59.248Z,994.46
2023-10-23T00:05:59.188Z,994.46
2023-10-23T00:06:59.310Z,994.46
2023-10-23T00:07:59.471Z,994.44
2023-10-23T00:08:59.557Z,994.46
2023-10-23T00:09:59.695Z,994.47
2023-10-23T00:10:59.824Z,994.44
2023-10-23T00:11:59.956Z,994.45
2023-10-23T00:13:00.120Z,994.47
2023-10-23T00:14:00.275Z,994.48
2023-10-23T00:15:00.338Z,994.45
2023-10-23T00:16:00.463Z,994.48
2023-10-23T00:17:00.726Z,994.42
2023-10-23T00:18:00.799Z,994.43
2023-10-23T00:19:00.845Z,994.44
2023-10-23T00:20:00.977Z,994.42
2023-10-23T00:21:01.104Z,994.42
2023-10-23T00:22:01.237Z,994.49
2023-10-23T00:23:01.367Z,994.41
2023-10-23T00:24:01.469Z,994.41
2023-10-23T00:25:01.605Z,994.39
2023-10-23T00:26:01.727Z,994.39
2023-10-23T00:27:01.839Z,994.37
2023-10-23T00:28:01.990Z,994.38
2023-10-23T00:29:02.084Z,994.38
2023-10-23T00:30:02.214Z,994.42
2023-10-23T00:31:02.420Z,994.41
2023-10-23T00:32:02.474Z,994.39
2023-10-23T00:33:02.746Z,994.43
2023-10-23T00:34:02.791Z,994.35
2023-10-23T00:35:02.833Z,994.35
2023-10-23T00:36:02.972Z,994.38
2023-10-23T00:37:03.086Z,994.36
2023-10-23T00:38:03.314Z,994.40
2023-10-23T00:39:03.320Z,994.40
2023-10-23T00:40:03.450Z,994.41
2023-10-23T00:41:03.585Z,994.36
2023-10-23T00:42:04.555Z,994.41
2023-10-23T00:43:03.836Z,994.41
2023-10-23T00:44:03.928Z,994.35
2023-10-23T00:45:04.055Z,994.38
2023-10-23T00:46:04.163Z,994.41
2023-10-23T00:47:04.277Z,994.39
2023-10-23T00:48:04.464Z,994.35
2023-10-23T00:49:04.509Z,994.40
2023-10-23T00:50:04.639Z,994.39
2023-10-23T00:51:04.797Z,994.36
2023-10-23T00:52:04.878Z,994.36
2023-10-23T00:53:05.223Z,994.43
2023-10-23T00:54:05.112Z,994.35
2023-10-23T00:55:05.236Z,994.37
2023-10-23T00:56:05.363Z,994.37
2023-10-23T00:57:05.472Z,994.36
2023-10-23T00:58:05.633Z,994.39
2023-10-23T00:59:05.744Z,994.33
2023-10-23T01:00:05.833Z,994.34
2023-10-23T01:01:06.006Z,994.35
2023-10-23T01:02:06.092Z,994.35
2023-10-23T01:03:06.676Z,994.34
2023-10-23T01:04:06.377Z,994.38
2023-10-23T01:05:06.455Z,994.32
2023-10-23T01:06:06.577Z,994.32
2023-10-23T01:07:06.716Z,994.34
2023-10-23T01:08:06.861Z,994.34
2023-10-23T01:09:06.964Z,994.32
2023-10-23T01:10:07.073Z,994.32
2023-10-23T01:11:07.250Z,994.33
2023-10-23T01:12:07.313Z,994.33
2023-10-23T01:13:07.496Z,994.38
2023-10-23T01:14:07.554Z,994.33
2023-10-23T01:15:07.698Z,994.34
2023-10-23T01:16:07.806Z,994.35
2023-10-23T01:17:07.924Z,994.38
2023-10-23T01:18:08.128Z,994.34
2023-10-23T01:19:08.176Z,994.33
2023-10-23T01:20:08.291Z,994.35
2023-10-23T01:21:08.403Z,994.31
2023-10-23T01:22:08.515Z,994.38
2023-10-23T01:23:08.734Z,994.33
2023-10-23T01:24:08.756Z,994.35
2023-10-23T01:25:08.869Z,994.27
2023-10-23T01:26:08.986Z,994.33
2023-10-23T01:27:09.103Z,994.31
2023-10-23T01:28:09.255Z,994.32
2023-10-23T01:29:09.367Z,994.29
2023-10-23T01:30:09.494Z,994.30
2023-10-23T01:31:09.684Z,994.34
2023-10-23T01:32:09.739Z,994.34
2023-10-23T01:33:09.922Z,994.30
2023-10-23T01:34:09.994Z,994.30
2023-10-23T01:35:10.108Z,994.31
2023-10-23T01:36:10.225Z,994.30
2023-10-23T01:37:10.351Z,994.29
2023-10-23T01:38:10.906Z,994.33
2023-10-23T01:39:10.594Z,994.31
2023-10-23T01:40:10.717Z,994.28
2023-10-23T01:41:10.855Z,994.28
2023-10-23T01:42:10.960Z,994.29
2023-10-23T01:43:11.127Z,994.31
2023-10-23T01:44:11.210Z,994.29
2023-10-23T01:45:11.347Z,994.29
2023-10-23T01:46:11.482Z,994.34
2023-10-23T01:47:11.585Z,994.36
2023-10-23T01:48:11.823Z,994.35
2023-10-23T01:49:11.842Z,994.38
2023-10-23T01:50:11.944Z,994.38
2023-10-23T01:51:12.068Z,994.44
2023-10-23T01:52:12.192Z,994.40
2023-10-23T01:53:12.358Z,994.40
2023-10-23T01:54:12.438Z,994.39
2023-10-23T01:55:12.594Z,994.43
2023-10-23T01:56:12.704Z,994.41
2023-10-23T01:57:12.828Z,994.45
2023-10-23T01:58:12.974Z,994.49
2023-10-23T01:59:13.072Z,994.45
2023-10-23T02:00:13.195Z,994.49
2023-10-23T02:01:13.466Z,994.44
2023-10-23T02:02:13.426Z,994.48
2023-10-23T02:03:13.718Z,994.45
2023-10-23T02:04:13.881Z,994.46
2023-10-23T02:05:13.811Z,994.44
2023-10-23T02:06:14.335Z,994.48
2023-10-23T02:07:14.053Z,994.48
2023-10-23T02:08:14.201Z,994.43
2023-10-23T02:09:14.303Z,994.47
2023-10-23T02:10:14.468Z,994.38
2023-10-23T02:11:14.543Z,994.39
2023-10-23T02:12:14.674Z,994.39
2023-10-23T02:13:14.837Z,994.45
2023-10-23T02:14:14.923Z,994.40
2023-10-23T02:15:15.069Z,994.34
2023-10-23T02:16:15.205Z,994.36
2023-10-23T02:17:15.343Z,994.39
2023-10-23T02:18:15.984Z,994.40
2023-10-23T02:19:15.963Z,994.39
2023-10-23T02:20:16.065Z,994.34
2023-10-23T02:21:15.791Z,994.38
2023-10-23T02:22:15.918Z,994.42
2023-10-23T02:23:19.077Z,994.41
2023-10-23T02:24:16.157Z,994.44
2023-10-23T02:25:16.284Z,994.43
2023-10-23T02:26:16.412Z,994.38
2023-10-23T02:27:16.552Z,994.42
2023-10-23T02:28:16.750Z,994.43
2023-10-23T02:29:16.781Z,994.43
2023-10-23T02:30:16.909Z,994.37
2023-10-23T02:31:17.117Z,994.41
2023-10-23T02:32:17.150Z,994.43
2023-10-23T02:33:17.341Z,994.44
2023-10-23T02:34:17.395Z,994.41
2023-10-23T02:35:17.539Z,994.40
2023-10-23T02:36:17.712Z,994.48
2023-10-23T02:37:17.777Z,994.43
2023-10-23T02:38:17.947Z,994.39
2023-10-23T02:39:18.056Z,994.41
2023-10-23T02:40:18.184Z,994.44
2023-10-23T02:41:18.668Z,994.46
2023-10-23T02:42:18.418Z,994.43
2023-10-23T02:43:18.558Z,994.42
2023-10-23T02:44:18.642Z,994.50
2023-10-23T02:45:18.786Z,994.48
2023-10-23T02:46:18.946Z,994.50
2023-10-23T02:47:19.010Z,994.52
2023-10-23T02:48:19.193Z,994.44
2023-10-23T02:49:19.243Z,994.46
2023-10-23T02:50:19.351Z,994.48
2023-10-23T02:51:19.897Z,994.48
2023-10-23T02:52:19.594Z,994.45
2023-10-23T02:53:19.728Z,994.48
2023-10-23T02:54:19.884Z,994.46
2023-10-23T02:55:19.949Z,994.44
2023-10-23T02:56:20.062Z,994.47
2023-10-23T02:57:20.227Z,994.48
2023-10-23T02:58:20.339Z,994.49
2023-10-23T02:59:20.418Z,994.49
2023-10-23T03:00:20.560Z,994.51
2023-10-23T03:01:20.756Z,994.51
2023-10-23T03:02:20.796Z,994.53
2023-10-23T03:03:21.106Z,994.51
2023-10-23T03:04:21.055Z,994.51
2023-10-23T03:05:21.140Z,994.54
2023-10-23T03:06:21.272Z,994.50
2023-10-23T03:07:21.366Z,994.53
2023-10-23T03:08:21.514Z,994.50
2023-10-23T03:09:21.609Z,994.52
2023-10-23T03:10:21.719Z,994.54
2023-10-23T03:11:21.845Z,994.52
2023-10-23T03:12:21.991Z,994.53
2023-10-23T03:13:22.134Z,994.57
2023-10-23T03:14:22.209Z,994.48
2023-10-23T03:15:22.348Z,994.52
2023-10-23T03:16:22.678Z,994.52
2023-10-23T03:17:22.560Z,994.50
2023-10-23T03:18:22.848Z,994.50
2023-10-23T03:19:22.808Z,994.49
2023-10-23T03:20:22.914Z,994.48
2023-10-23T03:21:23.061Z,994.49
2023-10-23T03:22:23.153Z,994.45
2023-10-23T03:23:23.303Z,994.43
2023-10-23T03:24:23.380Z,994.46
2023-10-23T03:25:23.537Z,994.48
2023-10-23T03:26:23.619Z,994.51
2023-10-23T03:27:23.790Z,994.50
2023-10-23T03:28:23.892Z,994.50
2023-10-23T03:29:23.953Z,994.49
2023-10-23T03:30:24.061Z,994.49
2023-10-23T03:31:24.203Z,994.54
2023-10-23T03:32:24.299Z,994.54
2023-10-23T03:33:24.489Z,994.53
2023-10-23T03:34:24.531Z,994.49
2023-10-23T03:35:24.649Z,994.53
2023-10-23T03:36:24.800Z,994.58
2023-10-23T03:37:24.883Z,994.55
2023-10-23T03:38:25.065Z,994.55
2023-10-23T03:39:25.198Z,994.61
2023-10-23T03:40:25.263Z,994.53
2023-10-23T03:41:25.383Z,994.59
2023-10-23T03:42:25.531Z,994.54
2023-10-23T03:43:25.656Z,994.52
2023-10-23T03:44:25.743Z,994.51
2023-10-23T03:45:25.912Z,994.57
2023-10-23T03:46:26.121Z,994.53
2023-10-23T03:47:26.193Z,994.55
2023-10-23T03:48:26.290Z,994.51
2023-10-23T03:49:26.368Z,994.51
2023-10-23T03:50:26.486Z,994.50
2023-10-23T03:51:26.661Z,994.50
2023-10-23T03:52:26.729Z,994.51
2023-10-23T03:53:26.892Z,994.48
2023-10-23T03:54:27.000Z,994.50
2023-10-23T03:55:27.112Z,994.51
2023-10-23T03:56:27.246Z,994.45
2023-10-23T03:57:27.383Z,994.54
2023-10-23T03:58:27.491Z,994.43
2023-10-23T03:59:27.574Z,994.46
2023-10-23T04:00:27.732Z,994.45
2023-10-23T04:01:27.881Z,994.43
2023-10-23T04:02:28.006Z,994.47
2023-10-23T04:03:28.135Z,994.41
2023-10-23T04:04:29.692Z,994.42
2023-10-23T04:05:28.286Z,994.44
2023-10-23T04:06:28.482Z,994.41
2023-10-23T04:07:28.532Z,994.36
2023-10-23T04:08:28.665Z,994.35
2023-10-23T04:09:28.799Z,994.36
2023-10-23T04:10:28.886Z,994.35
2023-10-23T04:11:29.005Z,994.38
2023-10-23T04:12:29.167Z,994.39
2023-10-23T04:13:30.647Z,994.35
2023-10-23T04:14:29.355Z,994.38
2023-10-23T04:15:29.485Z,994.39
2023-10-23T04:16:29.610Z,994.38
2023-10-23T04:17:29.817Z,994.45
2023-10-23T04:18:29.908Z,994.37
2023-10-23T04:19:29.964Z,994.35
2023-10-23T04:20:30.081Z,994.40
2023-10-23T04:21:30.240Z,994.44
2023-10-23T04:22:30.342Z,994.41
2023-10-23T04:23:30.661Z,994.44
2023-10-23T04:24:30.634Z,994.43
2023-10-23T04:25:30.727Z,994.45
2023-10-23T04:26:31.267Z,994.44
2023-10-23T04:27:31.367Z,994.44
2023-10-23T04:28:31.146Z,994.42
2023-10-23T04:29:31.228Z,994.41
2023-10-23T04:30:31.369Z,994.40
2023-10-23T04:31:31.501Z,994.43
2023-10-23T04:32:31.634Z,994.44
2023-10-23T04:33:31.776Z,994.40
2023-10-23T04:34:31.858Z,994.38
2023-10-23T04:35:31.956Z,994.41
2023-10-23T04:36:32.089Z,994.43
2023-10-23T04:37:32.187Z,994.43
2023-10-23T04:38:32.407Z,994.42
2023-10-23T04:39:32.518Z,994.42
2023-10-23T04:40:32.543Z,994.47
2023-10-23T04:41:32.708Z,994.51
2023-10-23T04:42:32.810Z,994.50
2023-10-23T04:43:32.932Z,994.51
2023-10-23T04:44:33.021Z,994.58
2023-10-23T04:45:33.150Z,994.59
2023-10-23T04:46:33.297Z,994.57
2023-10-23T04:47:33.463Z,994.61
2023-10-23T04:48:33.553Z,994.63
2023-10-23T04:49:33.644Z,994.62
2023-10-23T04:50:33.749Z,994.65
2023-10-23T04:51:33.897Z,994.66
2023-10-23T04:52:34.003Z,994.65
2023-10-23T04:53:34.144Z,994.67
2023-10-23T04:54:34.243Z,994.69
2023-10-23T04:55:34.364Z,994.66
2023-10-23T04:56:34.488Z,994.69
2023-10-23T04:57:34.716Z,994.61
2023-10-23T04:58:34.853Z,994.67
2023-10-23T04:59:34.856Z,994.72
2023-10-23T05:00:35.150Z,994.67
2023-10-23T05:01:35.531Z,994.71
2023-10-23T05:02:35.669Z,994.72
2023-10-23T05:03:35.411Z,994.69
2023-10-23T05:04:35.524Z,994.71
2023-10-23T05:05:35.571Z,994.74
2023-10-23T05:06:35.753Z,994.72
2023-10-23T05:07:35.787Z,994.78
2023-10-23T05:08:35.932Z,994.74
2023-10-23T05:09:36.072Z,994.74
2023-10-23T05:10:36.153Z,994.74
2023-10-23T05:11:36.260Z,994.70
2023-10-23T05:12:36.375Z,994.76
2023-10-23T05:13:36.508Z,994.77
2023-10-23T05:14:36.603Z,994.74
2023-10-23T05:15:36.771Z,994.78
2023-10-23T05:16:36.870Z,994.81
2023-10-23T05:17:37.027Z,994.81
2023-10-23T05:18:37.178Z,994.73
2023-10-23T05:19:37.357Z,994.78
2023-10-23T05:20:37.310Z,994.81
2023-10-23T05:21:37.436Z,994.83
2023-10-23T05:22:37.544Z,994.78
2023-10-23T05:23:37.697Z,994.82
2023-10-23T05:24:37.801Z,994.80
2023-10-23T05:25:37.912Z,994.79
2023-10-23T05:26:38.036Z,994.79
2023-10-23T05:27:38.217Z,994.76
2023-10-23T05:28:38.280Z,994.74
2023-10-23T05:29:38.626Z,994.73
2023-10-23T05:30:38.531Z,994.79
2023-10-23T05:31:38.636Z,994.77
2023-10-23T05:32:38.729Z,994.79
2023-10-23T05:33:38.953Z,994.80
2023-10-23T05:34:38.967Z,994.79
2023-10-23T05:35:39.085Z,994.82
2023-10-23T05:36:39.234Z,994.87
2023-10-23T05:37:39.316Z,994.87
2023-10-23T05:38:39.572Z,994.90
2023-10-23T05:39:39.641Z,994.90
2023-10-23T05:40:39.678Z,994.93
2023-10-23T05:41:39.783Z,994.90
2023-10-23T05:42:39.940Z,994.89
2023-10-23T05:43:40.067Z,994.86
2023-10-23T05:44:40.160Z,994.88
2023-10-23T05:45:40.347Z,994.88
2023-10-23T05:46:40.449Z,994.90
2023-10-23T05:47:40.571Z,994.91
2023-10-23T05:48:40.677Z,994.90
2023-10-23T05:49:40.833Z,994.96
2023-10-23T05:50:40.808Z,994.96
2023-10-23T05:51:40.980Z,994.97
2023-10-23T05:52:41.050Z,994.93
2023-10-23T05:53:41.202Z,994.96
2023-10-23T05:54:41.328Z,994.96
2023-10-23T05:55:41.411Z,994.95
2023-10-23T05:56:41.535Z,994.97
2023-10-23T05:57:41.693Z,995.00
2023-10-23T05:58:41.788Z,995.04
2023-10-23T05:59:41.882Z,995.01
2023-10-23T06:00:42.007Z,995.10
2023-10-23T06:01:42.143Z,995.08
2023-10-23T06:02:42.266Z,995.12
2023-10-23T06:03:42.422Z,995.12
2023-10-23T06:04:42.579Z,995.17
2023-10-23T06:05:42.618Z,995.17
2023-10-23T06:06:42.758Z,995.18
2023-10-23T06:07:42.890Z,995.25
2023-10-23T06:08:43.293Z,995.28
2023-10-23T06:09:43.130Z,995.28
2023-10-23T06:10:43.153Z,995.29
2023-10-23T06:11:43.650Z,995.30
2023-10-23T06:12:43.437Z,995.30
2023-10-23T06:13:43.518Z,995.33
2023-10-23T06:14:43.622Z,995.40
2023-10-23T06:15:43.788Z,995.39
2023-10-23T06:16:43.858Z,995.41
2023-10-23T06:17:44.421Z,995.40
2023-10-23T06:18:44.934Z,995.38
2023-10-23T06:19:44.185Z,995.43
2023-10-23T06:20:44.297Z,995.39
2023-10-23T06:21:44.464Z,995.37
2023-10-23T06:22:44.518Z,995.46
2023-10-23T06:23:44.641Z,995.42
2023-10-23T06:24:44.824Z,995.43
2023-10-23T06:25:44.871Z,995.40
2023-10-23T06:26:45.069Z,995.44
2023-10-23T06:27:45.115Z,995.48
2023-10-23T06:28:45.227Z,995.46
2023-10-23T06:29:45.369Z,995.43
2023-10-23T06:30:45.488Z,995.53
2023-10-23T06:31:45.620Z,995.53
2023-10-23T06:32:45.770Z,995.51
2023-10-23T06:33:45.836Z,995.52
2023-10-23T06:34:45.975Z,995.49
2023-10-23T06:35:46.053Z,995.53
2023-10-23T06:36:46.230Z,995.55
2023-10-23T06:37:46.294Z,995.57
2023-10-23T06:38:46.438Z,995.54
2023-10-23T06:39:46.584Z,995.52
2023-10-23T06:40:46.659Z,995.55
2023-10-23T06:41:46.792Z,995.55
2023-10-23T06:42:46.904Z,995.56
2023-10-23T06:43:47.012Z,995.60
2023-10-23T06:44:47.199Z,995.58
2023-10-23T06:46:48.380Z,995.59
2023-10-23T06:47:47.597Z,995.56
2023-10-23T06:48:47.642Z,995.58
2023-10-23T06:49:47.743Z,995.57
2023-10-23T06:50:47.850Z,995.57
2023-10-23T06:51:47.937Z,995.57
2023-10-23T06:52:48.060Z,995.56
2023-10-23T06:53:48.225Z,995.61
2023-10-23T06:54:48.356Z,995.66
2023-10-23T06:55:48.427Z,995.63
2023-10-23T06:56:48.565Z,995.72
2023-10-23T06:57:48.647Z,995.66
2023-10-23T06:58:48.766Z,995.67
2023-10-23T06:59:48.952Z,995.69
2023-10-23T07:00:49.071Z,995.71
2023-10-23T07:01:49.133Z,995.70
2023-10-23T07:02:49.307Z,995.72
2023-10-23T07:03:49.443Z,995.70
2023-10-23T07:04:49.554Z,995.76
2023-10-23T07:05:49.668Z,995.75
2023-10-23T07:06:49.747Z,995.70
2023-10-23T07:07:49.857Z,995.73
2023-10-23T07:08:50.030Z,995.74
2023-10-23T07:09:50.149Z,995.73
2023-10-23T07:10:50.236Z,995.82
2023-10-23T07:11:50.411Z,995.79
2023-10-23T07:12:50.487Z,995.83
2023-10-23T07:13:50.609Z,995.81
2023-10-23T07:14:50.915Z,995.81
2023-10-23T07:15:51.005Z,995.87
2023-10-23T07:16:51.046Z,995.83
2023-10-23T07:17:51.198Z,995.80
2023-10-23T07:18:51.286Z,995.83
2023-10-23T07:19:51.386Z,995.81
2023-10-23T07:20:51.482Z,995.82
2023-10-23T07:21:51.609Z,995.86
2023-10-23T07:22:51.721Z,995.83
2023-10-23T07:23:51.889Z,995.88
2023-10-23T07:24:51.996Z,995.89
2023-10-23T07:25:52.080Z,995.90
2023-10-23T07:26:52.231Z,995.84
2023-10-23T07:27:52.314Z,995.83
2023-10-23T07:28:52.463Z,995.81
2023-10-23T07:29:52.626Z,995.85
2023-10-23T07:30:52.683Z,995.86
2023-10-23T07:31:52.800Z,995.88
2023-10-23T07:32:52.973Z,995.84
2023-10-23T07:33:53.103Z,995.87
2023-10-23T07:34:53.183Z,995.85
2023-10-23T07:35:53.939Z,995.89
2023-10-23T07:36:53.402Z,995.85
2023-10-23T07:37:53.482Z,995.87
2023-10-23T07:38:53.604Z,995.86
2023-10-23T07:39:53.828Z,995.84
2023-10-23T07:40:53.848Z,995.83
2023-10-23T07:41:53.969Z,995.86
2023-10-23T07:42:54.118Z,995.86
2023-10-23T07:43:54.186Z,995.86
2023-10-23T07:44:54.350Z,995.88
2023-10-23T07:46:03.997Z,995.85
2023-10-23T07:46:55.636Z,995.89
2023-10-23T07:47:54.722Z,995.87
2023-10-23T07:48:54.836Z,995.90
2023-10-23T07:49:54.948Z,995.91
2023-10-23T07:50:55.045Z,995.93
2023-10-23T07:51:55.191Z,995.91
2023-10-23T07:52:55.278Z,995.96
2023-10-23T07:53:55.404Z,995.97
2023-10-23T07:54:55.632Z,995.95
2023-10-23T07:55:55.639Z,995.90
2023-10-23T07:56:55.764Z,995.93
2023-10-23T07:57:55.914Z,995.94
2023-10-23T07:58:56.004Z,995.92
2023-10-23T07:59:56.150Z,995.95
2023-10-23T08:00:56.297Z,995.95
2023-10-23T08:01:56.437Z,995.97
2023-10-23T08:02:56.592Z,995.92
2023-10-23T08:03:56.681Z,995.91
2023-10-23T08:04:56.822Z,995.95
2023-10-23T08:05:56.815Z,996.00
2023-10-23T08:06:56.962Z,995.96
2023-10-23T08:07:57.032Z,995.97
2023-10-23T08:08:57.152Z,995.94
2023-10-23T08:09:57.303Z,995.95
2023-10-23T08:10:57.381Z,996.01
2023-10-23T08:11:57.527Z,995.93
2023-10-23T08:12:57.634Z,995.95
2023-10-23T08:13:57.724Z,995.98
2023-10-23T08:14:57.868Z,995.95
2023-10-23T08:16:00.482Z,995.97
2023-10-23T08:16:58.158Z,996.04
2023-10-23T08:17:58.312Z,995.99
2023-10-23T08:18:58.403Z,996.03
2023-10-23T08:19:58.498Z,996.06
2023-10-23T08:20:58.551Z,996.06
2023-10-23T08:21:58.691Z,996.11
2023-10-23T08:22:58.783Z,996.06
2023-10-23T08:23:59.324Z,996.06
2023-10-23T08:24:59.100Z,996.15
2023-10-23T08:25:59.134Z,996.09
2023-10-23T08:26:59.238Z,996.14
2023-10-23T08:27:59.494Z,996.08
2023-10-23T08:29:03.191Z,996.13
2023-10-23T08:29:59.622Z,996.17
2023-10-23T08:30:59.735Z,996.15
2023-10-23T08:31:59.845Z,996.18
2023-10-23T08:33:00.007Z,996.21
2023-10-23T08:34:00.167Z,996.19
2023-10-23T08:35:00.182Z,996.16
2023-10-23T08:36:00.251Z,996.16
2023-10-23T08:37:00.417Z,996.20
2023-10-23T08:38:00.606Z,996.16
2023-10-23T08:39:00.820Z,996.21
2023-10-23T08:40:00.768Z,996.22
2023-10-23T08:41:00.836Z,996.25
2023-10-23T08:42:00.910Z,996.20
2023-10-23T08:43:01.123Z,996.22
2023-10-23T08:44:01.173Z,996.22
2023-10-23T08:45:01.281Z,996.22
2023-10-23T08:46:01.381Z,996.25
2023-10-23T08:47:01.497Z,996.27
2023-10-23T08:48:01.608Z,996.27
2023-10-23T08:49:01.729Z,996.25
2023-10-23T08:50:01.847Z,996.27
2023-10-23T08:51:01.896Z,996.34
2023-10-23T08:52:02.041Z,996.30
2023-10-23T08:53:02.100Z,996.34
2023-10-23T08:54:11.001Z,996.41
2023-10-23T08:55:03.371Z,996.33
2023-10-23T08:56:02.387Z,996.41
2023-10-23T08:57:02.493Z,996.37
2023-10-23T08:58:02.654Z,996.38
2023-10-23T08:59:02.718Z,996.42
2023-10-23T09:00:02.826Z,996.36
2023-10-23T09:01:03.039Z,996.37
2023-10-23T09:02:03.149Z,996.39
2023-10-23T09:03:03.215Z,996.43
2023-10-23T09:04:06.039Z,996.43
2023-10-23T09:05:03.506Z,996.40
2023-10-23T09:06:03.521Z,996.47
2023-10-23T09:07:03.626Z,996.43
2023-10-23T09:08:03.708Z,996.49
2023-10-23T09:09:03.822Z,996.48
2023-10-23T09:10:03.957Z,996.41
2023-10-23T09:11:04.064Z,996.42
2023-10-23T09:12:04.128Z,996.40
2023-10-23T09:13:04.325Z,996.42
2023-10-23T09:14:04.356Z,996.44
2023-10-23T09:15:04.498Z,996.41
2023-10-23T09:16:04.662Z,996.39
2023-10-23T09:17:04.774Z,996.41
2023-10-23T09:18:04.821Z,996.43
2023-10-23T09:19:04.942Z,996.46
2023-10-23T09:20:04.969Z,996.44
2023-10-23T09:21:05.151Z,996.46
2023-10-23T09:22:05.299Z,996.53
2023-10-23T09:23:05.280Z,996.50
2023-10-23T09:24:05.468Z,996.52
2023-10-23T09:25:05.519Z,996.53
2023-10-23T09:26:05.613Z,996.56
2023-10-23T09:27:05.731Z,996.53
2023-10-23T09:28:05.831Z,996.58
2023-10-23T09:29:05.898Z,996.59
2023-10-23T09:30:05.997Z,996.58
2023-10-23T09:31:06.178Z,996.61
2023-10-23T09:32:06.641Z,996.65
2023-10-23T09:33:06.342Z,996.67
2023-10-23T09:34:06.468Z,996.65
2023-10-23T09:35:06.519Z,996.67
2023-10-23T09:36:06.641Z,996.71
2023-10-23T09:37:06.746Z,996.73
2023-10-23T09:38:06.818Z,996.72
2023-10-23T09:39:06.915Z,996.74
2023-10-23T09:40:07.048Z,996.80
2023-10-23T09:41:07.159Z,996.79
2023-10-23T09:42:07.220Z,996.74
2023-10-23T09:43:07.362Z,996.74
2023-10-23T09:44:07.420Z,996.75
2023-10-23T09:45:07.505Z,996.78
2023-10-23T09:46:07.703Z,996.77
2023-10-23T09:47:07.768Z,996.79
2023-10-23T09:48:07.944Z,996.75
2023-10-23T09:49:08.035Z,996.82
2023-10-23T09:50:08.884Z,996.81
2023-10-23T09:51:08.182Z,996.82
2023-10-23T09:52:08.257Z,996.80
2023-10-23T09:53:08.308Z,996.84
2023-10-23T09:54:08.411Z,996.86
2023-10-23T09:55:08.622Z,996.86
2023-10-23T09:56:08.664Z,996.84
2023-10-23T09:57:08.720Z,996.81
2023-10-23T09:58:08.869Z,996.81
2023-10-23T09:59:08.932Z,996.78
2023-10-23T10:00:09.033Z,996.80
2023-10-23T10:01:09.200Z,996.76
2023-10-23T10:02:09.331Z,996.83
2023-10-23T10:03:09.435Z,996.77
2023-10-23T10:04:09.494Z,996.79
2023-10-23T10:05:09.569Z,996.78
2023-10-23T10:06:09.691Z,996.78
2023-10-23T10:07:09.799Z,996.78
2023-10-23T10:08:09.896Z,996.72
2023-10-23T10:09:09.980Z,996.74
2023-10-23T10:10:10.156Z,996.72
2023-10-23T10:11:10.229Z,996.68
2023-10-23T10:12:10.318Z,996.67
2023-10-23T10:13:10.435Z,996.66
2023-10-23T10:14:10.511Z,996.73
2023-10-23T10:15:10.707Z,996.70
2023-10-23T10:16:10.873Z,996.71
2023-10-23T10:17:10.871Z,996.66
2023-10-23T10:18:10.933Z,996.66
2023-10-23T10:19:11.051Z,996.65
2023-10-23T10:20:11.102Z,996.63
2023-10-23T10:21:11.238Z,996.68
2023-10-23T10:22:11.341Z,996.69
2023-10-23T10:23:11.424Z,996.68
2023-10-23T10:24:11.515Z,996.71
2023-10-23T10:25:11.619Z,996.72
2023-10-23T10:26:12.549Z,996.74
2023-10-23T10:27:11.817Z,996.75
2023-10-23T10:28:11.903Z,996.74
2023-10-23T10:29:11.991Z,996.73
2023-10-23T10:30:12.105Z,996.76
2023-10-23T10:31:12.261Z,996.75
2023-10-23T10:32:14.324Z,996.72
2023-10-23T10:34:18.386Z,996.76
2023-10-23T10:34:25.838Z,996.75
2023-10-23T10:35:13.668Z,996.80
2023-10-23T10:36:12.735Z,996.74
2023-10-23T10:37:25.291Z,996.80
2023-10-23T10:38:13.874Z,996.80
2023-10-23T10:39:12.933Z,996.78
2023-10-23T10:40:13.067Z,996.78
2023-10-23T10:41:13.130Z,996.79
2023-10-23T10:42:13.219Z,996.83
2023-10-23T10:43:13.369Z,996.80
2023-10-23T10:44:13.537Z,996.76
2023-10-23T10:45:13.512Z,996.81
2023-10-23T10:46:13.700Z,996.83
2023-10-23T10:47:13.747Z,996.83
2023-10-23T10:48:13.838Z,996.83
2023-10-23T10:49:13.961Z,996.86
2023-10-23T10:50:14.060Z,996.85
2023-10-23T10:51:14.099Z,996.85
2023-10-23T10:52:14.214Z,996.85
2023-10-23T10:53:14.317Z,996.91
2023-10-23T10:54:14.445Z,996.90
2023-10-23T10:55:14.621Z,996.87
2023-10-23T10:56:14.600Z,996.88
2023-10-23T10:57:14.702Z,996.85
2023-10-23T10:58:14.844Z,996.90
2023-10-23T10:59:14.928Z,996.91
2023-10-23T11:00:14.990Z,996.88
2023-10-23T11:01:15.137Z,996.84
2023-10-23T11:02:15.169Z,996.87
2023-10-23T11:03:15.289Z,996.85
2023-10-23T11:04:15.482Z,996.89
2023-10-23T11:05:15.516Z,996.87
2023-10-23T11:06:15.561Z,996.88
2023-10-23T11:07:15.690Z,996.87
2023-10-23T11:08:15.757Z,996.87
2023-10-23T11:09:15.864Z,996.88
2023-10-23T11:10:15.972Z,996.89
2023-10-23T11:11:16.018Z,996.89
2023-10-23T11:12:16.107Z,996.93
2023-10-23T11:13:16.264Z,996.96
2023-10-23T11:14:16.317Z,996.96
2023-10-23T11:15:16.401Z,996.97
2023-10-23T11:16:16.634Z,996.94
2023-10-23T11:17:16.685Z,996.95
2023-10-23T11:18:16.669Z,996.99
2023-10-23T11:19:16.817Z,997.00
2023-10-23T11:20:16.859Z,997.00
2023-10-23T11:21:16.944Z,997.06
2023-10-23T11:22:17.089Z,997.04
2023-10-23T11:23:17.137Z,997.04
2023-10-23T11:24:17.260Z,997.05
2023-10-23T11:25:17.485Z,997.07
2023-10-23T11:26:17.418Z,997.09
2023-10-23T11:27:17.514Z,997.04
2023-10-23T11:28:17.697Z,997.04
2023-10-23T11:29:17.727Z,997.00
2023-10-23T11:30:17.796Z,996.98
2023-10-23T11:31:17.943Z,996.98
2023-10-23T11:32:17.978Z,997.00
2023-10-23T11:33:18.052Z,997.02
2023-10-23T11:34:18.191Z,997.01
2023-10-23T11:35:18.235Z,997.02
2023-10-23T11:36:18.325Z,997.04
2023-10-23T11:37:18.497Z,997.04
2023-10-23T11:38:18.502Z,997.04
2023-10-23T11:39:18.607Z,997.02
2023-10-23T11:40:19.790Z,997.08
2023-10-23T11:41:18.771Z,997.08
2023-10-23T11:42:18.845Z,997.07
2023-10-23T11:43:18.958Z,997.04
2023-10-23T11:44:19.120Z,997.10
2023-10-23T11:45:19.104Z,997.14
2023-10-23T11:46:19.301Z,997.16
2023-10-23T11:47:19.333Z,997.13
2023-10-23T11:48:19.360Z,997.13
2023-10-23T11:49:19.596Z,997.12
2023-10-23T11:50:21.977Z,997.11
2023-10-23T11:51:19.603Z,997.16
2023-10-23T11:52:19.703Z,997.15
2023-10-23T11:53:19.795Z,997.15
2023-10-23T11:54:19.911Z,997.19
2023-10-23T11:55:20.050Z,997.16
2023-10-23T11:56:20.038Z,997.16
2023-10-23T11:57:20.217Z,997.16
2023-10-23T11:58:20.264Z,997.19
2023-10-23T11:59:20.315Z,997.16
2023-10-23T12:00:20.443Z,997.21
2023-10-23T12:01:20.566Z,997.23
2023-10-23T12:02:20.571Z,997.13
2023-10-23T12:03:20.629Z,997.18
2023-10-23T12:04:20.806Z,997.16
2023-10-23T12:05:20.802Z,997.14
2023-10-23T12:06:20.879Z,997.15
2023-10-23T12:07:20.999Z,997.14
2023-10-23T12:08:21.049Z,997.14
2023-10-23T12:09:21.136Z,997.18
2023-10-23T12:10:21.251Z,997.16
2023-10-23T12:11:21.280Z,997.16
2023-10-23T12:12:21.375Z,997.14
2023-10-23T12:13:21.504Z,997.19
2023-10-23T12:14:21.563Z,997.21
2023-10-23T12:15:21.639Z,997.24
2023-10-23T12:16:21.814Z,997.21
2023-10-23T12:17:21.787Z,997.22
2023-10-23T12:18:21.879Z,997.20
2023-10-23T12:19:22.032Z,997.23
2023-10-23T12:20:22.046Z,997.20
2023-10-23T12:21:22.126Z,997.27
2023-10-23T12:22:22.292Z,997.22
2023-10-23T12:23:22.301Z,997.27
2023-10-23T12:24:22.426Z,997.27
2023-10-23T12:25:22.527Z,997.31
2023-10-23T12:26:22.569Z,997.23
2023-10-23T12:27:22.654Z,997.27
2023-10-23T12:28:22.773Z,997.30
2023-10-23T12:29:22.848Z,997.30
2023-10-23T12:30:24.387Z,997.26
2023-10-23T12:31:25.042Z,997.29